Ashton Green, United Kingdom
Current Conditions -  °F | °C
As of 3:50 PM on Thursday 23 Oct 2014 (Local Time) from EGKA Reporting Station
Moderate Rain Moderate Rain  
Wind Chill: 57°   Ceiling: 600
Heat Index: 57°   Visibility: 1.2mi
Dew Point: 57°   Wind: 14mph
Humidity: 100%   Direction: 220°SW
Pressure: 30.09"   Gusts: NA
Location:  50.94°N, 0.02°W
Report Text: EGKA 231450Z 22012KT 2000 RADZ BR SCT004 BKN006 14/14 Q1019
Loading
Personal Weather Stations






























Interactive Weather Map
Tropical Storm Tracking
New forecast layout! Learn more

10-Day Weather Forecast

Advertisements
Track Severe Weather on mobile